Time;durP1;ratioP1;P1;durP2;ratioP2;P2;SDS_P1;SDS_P2;PMS_P1;PMS_P2;Temp;Humidity;BMP_temperature;BMP_pressure;BME280_temperature;BME280_humidity;BME280_pressure;Samples;Min_cycle;Max_cycle;Signal;HPM_P1;HPM_P2
2023/12/30 00:01:33;;;;;;;6.23;1.97;;;;;;;7.83;100.00;99915.78;4983517;28;20235;-76
2023/12/30 00:04:00;;;;;;;4.43;1.43;;;;;;;7.77;100.00;99921.47;4983677;28;20207;-77
2023/12/30 00:06:26;;;;;;;3.30;0.80;;;;;;;7.77;100.00;99930.28;4982407;28;20203;-75
2023/12/30 00:08:53;;;;;;;2.70;0.70;;;;;;;7.74;100.00;99937.56;4986120;28;20231;-77
2023/12/30 00:11:21;;;;;;;1.87;0.50;;;;;;;7.71;99.83;99937.75;4979735;28;20209;-75
2023/12/30 00:13:47;;;;;;;0.47;0.30;;;;;;;7.62;97.44;99934.75;4978503;28;20210;-74
2023/12/30 00:16:14;;;;;;;1.37;0.50;;;;;;;7.56;96.94;99921.00;4984350;28;20229;-75
2023/12/30 00:18:40;;;;;;;1.33;0.30;;;;;;;7.51;97.00;99923.13;4982305;28;20250;-75
2023/12/30 00:21:07;;;;;;;1.00;0.27;;;;;;;7.48;97.21;99910.91;4983080;28;20219;-76
2023/12/30 00:23:35;;;;;;;0.53;0.40;;;;;;;7.39;96.68;99926.50;4984558;28;20241;-74
2023/12/30 00:26:01;;;;;;;1.00;0.53;;;;;;;7.32;97.90;99916.31;4985967;28;20262;-76
2023/12/30 00:28:29;;;;;;;1.17;0.43;;;;;;;7.28;97.06;99921.88;4982749;28;20242;-76
2023/12/30 00:30:55;;;;;;;0.53;0.30;;;;;;;7.22;96.48;99920.44;4987190;28;20223;-76
2023/12/30 00:33:22;;;;;;;1.27;0.33;;;;;;;7.22;96.46;99922.25;4978670;28;20208;-75
2023/12/30 00:35:48;;;;;;;0.20;0.10;;;;;;;7.18;96.40;99902.19;4983585;28;20204;-76
2023/12/30 00:38:15;;;;;;;1.30;0.20;;;;;;;7.15;96.28;99891.81;4984780;28;20235;-75
2023/12/30 00:40:41;;;;;;;0.93;0.60;;;;;;;7.15;95.72;99897.94;4988821;28;20199;-75
2023/12/30 00:43:08;;;;;;;1.13;0.60;;;;;;;7.14;96.46;99908.63;4982299;28;20222;-76
2023/12/30 00:45:36;;;;;;;1.47;0.67;;;;;;;7.11;97.24;99901.72;4986794;28;20223;-76
2023/12/30 00:48:02;;;;;;;0.50;0.40;;;;;;;7.10;98.02;99915.91;4986441;28;20254;-77
2023/12/30 00:50:30;;;;;;;1.17;0.30;;;;;;;7.11;98.40;99916.75;4987547;28;20208;-78
2023/12/30 00:52:56;;;;;;;0.63;0.30;;;;;;;7.10;98.24;99915.06;4984619;28;20226;-76
2023/12/30 00:55:22;;;;;;;1.13;0.30;;;;;;;7.13;98.76;99925.47;4986080;28;20644;-76
2023/12/30 00:57:49;;;;;;;0.97;0.40;;;;;;;7.09;98.56;99930.09;4983801;28;20212;-76
2023/12/30 01:00:16;;;;;;;1.13;0.50;;;;;;;7.13;97.48;99930.75;4984375;28;20222;-76
2023/12/30 01:02:43;;;;;;;2.20;1.10;;;;;;;7.14;97.25;99948.34;4983291;28;20208;-75
2023/12/30 01:05:10;;;;;;;0.83;0.30;;;;;;;7.12;96.30;99937.00;4982834;28;20211;-76
2023/12/30 01:07:36;;;;;;;1.70;0.30;;;;;;;7.09;97.52;99950.41;4983849;28;21300;-77
2023/12/30 01:10:04;;;;;;;0.33;0.20;;;;;;;7.08;96.93;99972.53;4987831;28;20247;-75
2023/12/30 01:12:30;;;;;;;0.30;0.13;;;;;;;7.04;94.60;99968.38;4981601;28;20299;-75
2023/12/30 01:14:57;;;;;;;0.70;0.40;;;;;;;6.97;93.51;99982.00;4983795;28;20212;-75
2023/12/30 01:17:23;;;;;;;0.97;0.20;;;;;;;6.91;92.49;99968.25;4979158;28;20211;-75
2023/12/30 01:19:51;;;;;;;0.93;0.20;;;;;;;6.87;91.83;99972.88;4984923;28;20224;-75
2023/12/30 01:22:17;;;;;;;1.40;0.20;;;;;;;6.77;91.20;99944.41;4977773;28;20234;-76
2023/12/30 01:24:44;;;;;;;0.80;0.20;;;;;;;6.69;92.27;99942.19;4978677;28;20212;-75
2023/12/30 01:27:10;;;;;;;1.60;0.30;;;;;;;6.66;92.36;99952.09;4985477;28;20204;-75
2023/12/30 01:29:37;;;;;;;0.90;0.10;;;;;;;6.63;93.28;99932.81;4983548;28;20235;-75
2023/12/30 01:32:03;;;;;;;0.80;0.40;;;;;;;6.59;92.85;99960.41;4980232;28;20234;-75
2023/12/30 01:34:30;;;;;;;0.47;0.23;;;;;;;6.58;93.28;99960.50;4981492;28;20211;-76
2023/12/30 01:36:57;;;;;;;0.87;0.37;;;;;;;6.53;93.44;99951.97;4978988;28;20223;-76
2023/12/30 01:39:24;;;;;;;1.20;0.60;;;;;;;6.47;93.54;99945.22;4982797;28;20235;-75
2023/12/30 01:41:51;;;;;;;1.50;0.57;;;;;;;6.46;93.33;99963.81;4986010;28;20203;-75
2023/12/30 01:44:18;;;;;;;2.27;0.50;;;;;;;6.44;92.52;99968.38;4985357;28;20269;-75
2023/12/30 01:46:44;;;;;;;1.13;0.43;;;;;;;6.39;92.95;99960.69;4981879;28;20211;-76
2023/12/30 01:49:12;;;;;;;0.87;0.20;;;;;;;6.43;92.21;99956.94;4983080;28;20239;-76
2023/12/30 01:51:39;;;;;;;0.20;0.20;;;;;;;6.44;92.49;99966.59;4984384;28;20215;-76
2023/12/30 01:54:07;;;;;;;0.77;0.30;;;;;;;6.43;92.89;99953.44;4981488;28;20207;-76
2023/12/30 01:56:35;;;;;;;1.93;0.40;;;;;;;6.40;92.49;99961.56;4985451;28;20618;-76
2023/12/30 01:59:02;;;;;;;2.27;0.50;;;;;;;6.36;92.02;99960.00;4984317;28;20782;-76
2023/12/30 02:01:29;;;;;;;1.03;0.50;;;;;;;6.37;92.86;99969.66;4979295;28;20212;-76
2023/12/30 02:03:56;;;;;;;1.40;0.50;;;;;;;6.39;93.07;99986.28;4984497;28;20660;-76
2023/12/30 02:06:22;;;;;;;1.33;0.60;;;;;;;6.40;93.51;99978.28;4986022;28;20207;-75
2023/12/30 02:08:50;;;;;;;1.33;0.60;;;;;;;6.39;93.05;99991.59;4982725;28;20234;-75
2023/12/30 02:11:18;;;;;;;0.87;0.30;;;;;;;6.36;93.72;99981.16;4987894;28;20215;-76
2023/12/30 02:13:45;;;;;;;2.00;0.50;;;;;;;6.36;93.85;99986.47;4984231;28;20212;-76
2023/12/30 02:16:12;;;;;;;1.43;0.30;;;;;;;6.36;94.04;99999.69;4978430;28;20209;-76
2023/12/30 02:18:39;;;;;;;2.23;0.57;;;;;;;6.37;94.41;100004.88;4983534;28;20491;-76
2023/12/30 02:21:05;;;;;;;1.10;0.20;;;;;;;6.36;94.08;100003.19;4980871;28;20228;-76
2023/12/30 02:23:33;;;;;;;1.17;0.30;;;;;;;6.37;94.24;100012.81;4980251;28;20204;-75
2023/12/30 02:26:00;;;;;;;2.80;1.27;;;;;;;6.37;94.16;100007.53;4980588;28;20212;-76
2023/12/30 02:28:26;;;;;;;1.80;0.50;;;;;;;6.36;94.85;100012.91;4983118;28;20239;-75
2023/12/30 02:30:52;;;;;;;1.77;0.63;;;;;;;6.35;95.06;100022.63;4983280;28;20231;-77
2023/12/30 02:33:19;;;;;;;2.50;0.40;;;;;;;6.34;95.13;100015.63;4980894;28;20212;-76
2023/12/30 02:35:47;;;;;;;1.17;0.47;;;;;;;6.35;95.62;100013.84;4980769;28;20207;-76
2023/12/30 02:38:13;;;;;;;0.87;0.30;;;;;;;6.37;95.49;100020.75;4986596;28;21002;-77
2023/12/30 02:40:41;;;;;;;1.13;0.40;;;;;;;6.37;95.96;100025.19;4983730;28;20210;-78
2023/12/30 02:43:07;;;;;;;2.50;0.60;;;;;;;6.37;95.70;100027.84;4984574;28;20679;-77
2023/12/30 02:45:34;;;;;;;1.10;0.47;;;;;;;6.34;96.22;100035.94;4984978;28;20222;-76
2023/12/30 02:48:00;;;;;;;1.13;0.50;;;;;;;6.31;97.00;100034.31;4987756;28;20223;-76
2023/12/30 02:50:27;;;;;;;0.80;0.63;;;;;;;6.33;95.61;100043.03;4986591;28;20227;-75
2023/12/30 02:52:53;;;;;;;0.70;0.30;;;;;;;6.31;96.37;100025.53;4988134;28;20211;-76
2023/12/30 02:55:20;;;;;;;2.37;0.37;;;;;;;6.34;96.24;100031.50;4987490;28;20208;-77
2023/12/30 02:57:47;;;;;;;1.23;0.50;;;;;;;6.33;96.49;100034.22;4990385;28;20214;-76
2023/12/30 03:00:15;;;;;;;3.37;0.70;;;;;;;6.33;96.75;100044.81;4983184;28;20226;-76
2023/12/30 03:02:42;;;;;;;2.10;0.60;;;;;;;6.33;96.52;100044.81;4984660;28;20742;-76
2023/12/30 03:05:09;;;;;;;1.83;0.50;;;;;;;6.31;96.27;100041.41;4987368;28;20207;-76
2023/12/30 03:07:36;;;;;;;2.30;0.77;;;;;;;6.34;96.70;100044.72;4989225;28;20207;-76
2023/12/30 03:10:03;;;;;;;2.47;0.63;;;;;;;6.32;96.26;100049.25;4988854;28;20234;-76
2023/12/30 03:12:30;;;;;;;1.50;0.53;;;;;;;6.32;95.54;100049.25;4988782;28;20208;-76
2023/12/30 03:14:58;;;;;;;0.57;0.40;;;;;;;6.30;95.66;100051.13;4987941;28;20294;-77
2023/12/30 03:17:24;;;;;;;1.87;0.53;;;;;;;6.31;96.23;100066.03;4983466;28;20208;-76
2023/12/30 03:19:51;;;;;;;1.13;0.43;;;;;;;6.28;96.12;100066.22;4986957;28;20224;-76
2023/12/30 03:22:17;;;;;;;2.77;0.60;;;;;;;6.29;96.24;100073.22;4984412;28;20211;-76
2023/12/30 03:24:44;;;;;;;2.47;0.70;;;;;;;6.27;96.04;100073.28;4989068;28;20207;-76
2023/12/30 03:27:10;;;;;;;1.17;0.50;;;;;;;6.31;96.34;100078.41;4985424;28;20250;-75
2023/12/30 03:29:37;;;;;;;1.97;0.60;;;;;;;6.30;95.55;100072.28;4985734;28;20238;-75
2023/12/30 03:32:05;;;;;;;1.27;0.50;;;;;;;6.25;96.02;100083.13;4988176;28;20555;-76
2023/12/30 03:34:31;;;;;;;1.27;0.37;;;;;;;6.28;95.71;100076.78;4986109;28;20587;-75
2023/12/30 03:36:58;;;;;;;2.10;0.50;;;;;;;6.24;95.96;100081.41;4985612;28;20680;-76
2023/12/30 03:39:24;;;;;;;1.13;0.40;;;;;;;6.24;96.59;100089.34;4987982;28;20736;-75
2023/12/30 03:41:51;;;;;;;2.30;0.50;;;;;;;6.22;96.13;100091.22;4985156;28;20208;-76
2023/12/30 03:44:17;;;;;;;1.73;0.60;;;;;;;6.19;96.62;100090.53;4988317;28;20230;-75
2023/12/30 03:46:44;;;;;;;4.80;0.77;;;;;;;6.21;96.36;100094.81;4986441;28;20234;-76
2023/12/30 03:49:11;;;;;;;3.73;0.47;;;;;;;6.21;96.78;100093.94;4984918;28;20243;-76
2023/12/30 03:51:38;;;;;;;1.30;0.80;;;;;;;6.21;96.64;100100.09;4985387;28;20207;-75
2023/12/30 03:54:04;;;;;;;2.13;0.73;;;;;;;6.22;96.05;100096.50;4985675;28;20222;-75
2023/12/30 03:56:32;;;;;;;1.23;0.50;;;;;;;6.24;96.27;100109.66;4982946;28;20207;-75
2023/12/30 03:58:59;;;;;;;2.57;0.60;;;;;;;6.20;96.36;100106.31;4983289;28;20680;-75
2023/12/30 04:01:26;;;;;;;2.23;0.60;;;;;;;6.20;95.87;100103.66;4986332;28;20208;-75
2023/12/30 04:03:52;;;;;;;2.30;0.57;;;;;;;6.18;96.19;100104.69;4986869;28;20613;-74
2023/12/30 04:06:20;;;;;;;2.60;0.77;;;;;;;6.14;96.25;100105.78;4985826;28;20678;-75
2023/12/30 04:08:47;;;;;;;1.07;0.50;;;;;;;6.13;96.79;100112.00;4985226;28;20246;-75
2023/12/30 04:11:13;;;;;;;3.13;0.73;;;;;;;6.14;96.27;100108.41;4987526;28;21248;-75
2023/12/30 04:13:40;;;;;;;2.40;1.00;;;;;;;6.14;96.38;100124.28;4984393;28;20863;-75
2023/12/30 04:16:07;;;;;;;2.37;0.50;;;;;;;6.14;96.74;100117.22;4984970;28;20207;-75
2023/12/30 04:18:34;;;;;;;1.60;0.60;;;;;;;6.15;96.14;100110.97;4983321;28;20232;-74
2023/12/30 04:21:00;;;;;;;1.90;0.60;;;;;;;6.15;96.13;100118.91;4984944;28;20694;-75
2023/12/30 04:23:28;;;;;;;1.87;0.70;;;;;;;6.16;96.11;100117.97;4984315;28;20216;-75
2023/12/30 04:25:55;;;;;;;2.77;1.00;;;;;;;6.14;95.70;100114.56;4986537;28;20208;-75
2023/12/30 04:28:21;;;;;;;1.47;0.60;;;;;;;6.12;96.03;100113.78;4986414;28;20223;-75
2023/12/30 04:30:47;;;;;;;2.90;0.63;;;;;;;6.12;95.79;100116.44;4975032;28;20231;-76
2023/12/30 04:33:14;;;;;;;2.20;0.77;;;;;;;6.10;95.72;100118.31;4987960;28;20216;-76
2023/12/30 04:35:41;;;;;;;3.10;0.77;;;;;;;6.15;96.17;100126.84;4983855;28;20588;-74
2023/12/30 04:38:07;;;;;;;5.17;0.73;;;;;;;6.15;95.45;100123.34;4985166;28;20235;-75
2023/12/30 04:40:35;;;;;;;1.93;0.57;;;;;;;6.15;95.34;100115.41;4987423;28;20671;-74
2023/12/30 04:43:02;;;;;;;2.17;0.90;;;;;;;6.11;95.46;100120.00;4984569;28;20328;-75
2023/12/30 04:45:28;;;;;;;1.27;0.70;;;;;;;6.12;95.45;100124.38;4985876;28;20200;-75
2023/12/30 04:47:55;;;;;;;1.47;0.70;;;;;;;6.09;95.37;100127.16;4985833;28;20208;-75
2023/12/30 04:50:23;;;;;;;3.67;0.80;;;;;;;6.07;95.27;100126.41;4984893;28;20592;-74
2023/12/30 04:52:49;;;;;;;3.37;0.60;;;;;;;6.11;94.48;100135.00;4984838;28;20214;-74
2023/12/30 04:55:15;;;;;;;4.07;0.80;;;;;;;6.12;94.34;100142.88;4983479;28;20216;-75
2023/12/30 04:57:47;;;;;;;6.00;1.00;;;;;;;6.09;94.50;100143.03;4983746;28;20211;-74
2023/12/30 05:00:15;;;;;;;7.57;1.00;;;;;;;6.05;94.30;100145.94;4999135;23;20330;-81
2023/12/30 05:02:41;;;;;;;4.93;0.73;;;;;;;6.01;94.21;100145.25;5000518;28;20207;-80
2023/12/30 05:05:09;;;;;;;5.37;1.00;;;;;;;5.99;94.16;100138.31;4983098;28;20871;-81
2023/12/30 05:07:35;;;;;;;3.83;0.67;;;;;;;6.04;94.44;100137.16;4973542;28;20235;-81
2023/12/30 05:10:02;;;;;;;5.63;1.17;;;;;;;6.06;94.52;100142.38;4970458;28;20744;-80
2023/12/30 05:12:28;;;;;;;4.50;0.80;;;;;;;6.06;94.38;100140.56;4975427;28;20705;-81
2023/12/30 05:14:56;;;;;;;4.83;1.03;;;;;;;6.10;94.45;100149.16;4973994;28;20256;-81
2023/12/30 05:17:22;;;;;;;1.87;0.67;;;;;;;6.11;93.83;100159.66;4969219;28;20211;-81
2023/12/30 05:19:49;;;;;;;4.37;0.97;;;;;;;6.07;94.17;100152.84;4970031;28;20800;-80
2023/12/30 05:22:16;;;;;;;5.57;1.00;;;;;;;6.05;94.13;100146.78;4971162;28;20216;-81
2023/12/30 05:24:43;;;;;;;3.90;0.93;;;;;;;6.06;94.70;100151.16;4973163;28;20287;-81
2023/12/30 05:27:09;;;;;;;4.87;0.90;;;;;;;6.08;94.26;100151.94;4968715;28;20212;-81
2023/12/30 05:29:36;;;;;;;3.67;1.30;;;;;;;6.09;94.20;100158.88;4968959;28;20232;-81
2023/12/30 05:32:05;;;;;;;3.80;1.30;;;;;;;6.12;93.88;100160.53;4967823;28;20209;-81
2023/12/30 05:34:31;;;;;;;2.27;0.97;;;;;;;6.13;93.67;100165.72;4971873;28;20216;-81
2023/12/30 05:36:58;;;;;;;3.67;1.10;;;;;;;6.13;94.32;100151.66;4970964;28;20221;-82
2023/12/30 05:39:24;;;;;;;6.10;1.60;;;;;;;6.12;94.28;100171.09;4970791;28;20596;-81
2023/12/30 05:41:50;;;;;;;4.50;1.50;;;;;;;6.11;94.40;100179.97;4977557;28;20203;-82
2023/12/30 05:44:17;;;;;;;3.77;1.40;;;;;;;6.09;94.52;100185.31;4961369;28;20232;-82
2023/12/30 05:46:43;;;;;;;5.07;1.90;;;;;;;6.08;94.48;100181.00;4968412;28;20209;-81
2023/12/30 05:49:11;;;;;;;3.73;1.40;;;;;;;6.08;93.58;100172.22;4967764;28;20212;-82
2023/12/30 05:51:41;;;;;;;4.60;1.63;;;;;;;6.11;94.06;100193.19;4979281;28;20637;-82
2023/12/30 05:54:09;;;;;;;7.07;1.73;;;;;;;6.12;94.03;100184.31;4970199;28;20238;-82
2023/12/30 05:56:35;;;;;;;7.80;1.70;;;;;;;6.10;93.93;100184.41;4977038;28;20204;-84
2023/12/30 05:59:02;;;;;;;3.97;1.60;;;;;;;6.08;93.83;100196.88;4975335;28;20209;-82
2023/12/30 06:01:29;;;;;;;4.90;1.80;;;;;;;6.07;94.05;100192.50;4973452;28;20223;-82
2023/12/30 06:03:55;;;;;;;2.47;1.60;;;;;;;6.10;94.50;100197.63;4964993;28;20225;-82
2023/12/30 06:06:23;;;;;;;5.97;1.97;;;;;;;6.08;94.12;100207.44;4969263;28;20216;-81
2023/12/30 06:08:49;;;;;;;6.27;1.77;;;;;;;6.07;94.96;100210.16;4965977;28;20208;-81
2023/12/30 06:11:16;;;;;;;5.77;1.90;;;;;;;6.06;94.55;100211.94;4975271;28;20240;-81
2023/12/30 06:13:42;;;;;;;4.37;1.60;;;;;;;6.06;94.83;100214.59;4968216;28;20220;-81
2023/12/30 06:16:10;;;;;;;4.77;2.00;;;;;;;6.04;95.03;100223.53;4971077;28;20215;-81
2023/12/30 06:18:37;;;;;;;4.23;2.07;;;;;;;6.03;95.16;100225.31;4968910;28;20208;-82
2023/12/30 06:21:04;;;;;;;5.60;2.90;;;;;;;6.03;95.46;100224.47;4969112;28;20216;-82
2023/12/30 06:23:32;;;;;;;8.13;2.33;;;;;;;6.03;95.47;100227.09;4976197;28;20606;-81
2023/12/30 06:26:00;;;;;;;6.00;1.97;;;;;;;6.05;96.05;100230.53;4963049;28;20299;-81
2023/12/30 06:28:27;;;;;;;6.20;1.93;;;;;;;6.04;95.67;100234.97;4969614;28;20228;-82
2023/12/30 06:30:53;;;;;;;4.73;2.13;;;;;;;6.06;94.96;100238.38;4972751;28;20232;-81
2023/12/30 06:33:22;;;;;;;6.17;2.00;;;;;;;6.03;95.90;100235.91;4974852;28;20287;-81
2023/12/30 06:35:49;;;;;;;3.87;1.70;;;;;;;6.04;95.60;100245.53;4975825;28;20216;-81
2023/12/30 06:38:16;;;;;;;6.20;2.07;;;;;;;6.06;95.83;100246.31;4977367;28;20200;-82
2023/12/30 06:40:45;;;;;;;6.47;2.33;;;;;;;6.09;94.56;100250.59;4968343;28;20219;-82
2023/12/30 06:43:12;;;;;;;8.37;2.33;;;;;;;6.09;95.26;100254.06;4973766;28;20760;-82
2023/12/30 06:45:38;;;;;;;8.50;2.17;;;;;;;6.06;95.16;100258.69;4974077;28;20225;-82
2023/12/30 06:48:06;;;;;;;3.13;1.63;;;;;;;6.07;94.81;100258.59;4965185;28;20211;-81
2023/12/30 06:50:32;;;;;;;5.17;1.50;;;;;;;6.08;94.80;100260.31;4966736;28;20224;-82
2023/12/30 06:52:59;;;;;;;6.03;2.13;;;;;;;6.12;95.17;100268.91;4969865;28;20215;-82
2023/12/30 06:55:25;;;;;;;4.77;1.70;;;;;;;6.09;95.15;100275.22;4967967;28;20220;-82
2023/12/30 06:57:53;;;;;;;5.50;1.57;;;;;;;6.10;95.27;100271.63;4973098;28;20220;-82
2023/12/30 07:00:21;;;;;;;5.27;1.47;;;;;;;6.11;95.12;100273.34;4968554;28;20669;-82
2023/12/30 07:02:47;;;;;;;5.50;1.67;;;;;;;6.11;94.70;100278.63;4965662;28;20204;-81
2023/12/30 07:05:14;;;;;;;8.87;2.20;;;;;;;6.10;95.07;100286.66;4970527;28;20228;-82
2023/12/30 07:07:40;;;;;;;4.70;1.60;;;;;;;6.09;94.66;100282.31;4971977;28;20208;-82
2023/12/30 07:10:07;;;;;;;6.80;2.13;;;;;;;6.11;93.96;100285.72;4967581;28;20209;-81
2023/12/30 07:12:34;;;;;;;2.50;1.70;;;;;;;6.13;93.89;100305.00;4966027;28;20654;-82
2023/12/30 07:15:02;;;;;;;5.00;1.83;;;;;;;6.11;93.60;100294.50;4969012;28;20271;-81
2023/12/30 07:17:29;;;;;;;6.97;2.07;;;;;;;6.11;93.11;100294.50;4971194;28;20816;-82
2023/12/30 07:19:56;;;;;;;4.37;1.57;;;;;;;6.10;93.03;100297.22;4972796;28;20291;-81
2023/12/30 07:22:23;;;;;;;10.03;2.10;;;;;;;6.08;93.79;100307.91;4963333;28;20787;-81
2023/12/30 07:24:49;;;;;;;4.50;1.90;;;;;;;6.11;92.30;100313.00;4971665;28;20223;-81
2023/12/30 07:27:16;;;;;;;5.33;1.80;;;;;;;6.07;92.66;100318.56;4971906;28;20212;-82
2023/12/30 07:29:42;;;;;;;6.07;1.47;;;;;;;6.06;92.05;100317.69;4973618;28;20203;-82
2023/12/30 07:32:10;;;;;;;4.33;1.97;;;;;;;6.04;92.63;100319.56;4962772;28;20232;-81
2023/12/30 07:34:37;;;;;;;15.13;3.70;;;;;;;6.05;92.93;100321.28;4972683;28;20623;-82
2023/12/30 07:37:04;;;;;;;4.83;1.83;;;;;;;6.09;92.81;100312.22;4962164;28;20219;-82
2023/12/30 07:39:32;;;;;;;4.93;1.73;;;;;;;6.11;92.49;100314.78;4968226;28;20248;-82
2023/12/30 07:41:59;;;;;;;6.93;1.87;;;;;;;6.09;92.52;100309.59;4974223;28;20204;-82
2023/12/30 07:44:25;;;;;;;8.90;1.90;;;;;;;6.11;92.23;100310.38;4972608;28;20228;-83
2023/12/30 07:46:52;;;;;;;4.30;2.27;;;;;;;6.09;91.84;100316.69;4977713;28;20203;-82
2023/12/30 07:49:20;;;;;;;6.40;2.00;;;;;;;6.12;91.59;100312.06;4976026;28;20247;-82
2023/12/30 07:51:46;;;;;;;4.83;2.00;;;;;;;6.10;92.25;100324.50;4963863;28;20236;-82
2023/12/30 07:54:13;;;;;;;7.03;2.10;;;;;;;6.11;92.21;100314.78;4965331;28;20235;-82
2023/12/30 07:56:40;;;;;;;6.03;2.23;;;;;;;6.09;92.12;100322.81;4976750;28;20209;-81
2023/12/30 07:59:06;;;;;;;7.20;2.17;;;;;;;6.09;91.88;100335.19;4975848;28;20248;-81
2023/12/30 08:01:33;;;;;;;6.27;1.80;;;;;;;6.10;92.92;100331.59;4977318;28;20200;-82
2023/12/30 08:04:00;;;;;;;7.87;1.90;;;;;;;6.12;92.96;100340.31;4971229;28;20224;-82
2023/12/30 08:06:28;;;;;;;4.77;1.67;;;;;;;6.17;92.94;100333.00;4977045;28;20232;-81
2023/12/30 08:08:54;;;;;;;6.73;2.20;;;;;;;6.17;92.91;100341.78;4971044;28;20216;-82
2023/12/30 08:11:21;;;;;;;3.67;1.50;;;;;;;6.20;93.27;100338.16;4979197;28;20315;-82
2023/12/30 08:13:47;;;;;;;11.03;1.97;;;;;;;6.19;92.97;100342.59;4974419;28;20228;-81
2023/12/30 08:16:14;;;;;;;6.60;2.40;;;;;;;6.16;92.67;100337.44;4979440;28;20247;-82
2023/12/30 08:18:40;;;;;;;5.53;2.40;;;;;;;6.19;93.66;100339.94;4978217;28;20204;-83
2023/12/30 08:21:07;;;;;;;3.40;2.00;;;;;;;6.23;93.84;100341.50;4977842;28;20211;-82
2023/12/30 08:23:35;;;;;;;8.00;2.40;;;;;;;6.26;93.57;100340.50;4974360;28;20209;-82
2023/12/30 08:26:01;;;;;;;4.27;1.83;;;;;;;6.28;93.66;100338.59;4978893;28;20228;-82
2023/12/30 08:28:28;;;;;;;8.07;2.97;;;;;;;6.30;93.93;100335.88;4973785;28;20219;-82
2023/12/30 08:30:56;;;;;;;8.37;2.87;;;;;;;6.35;93.36;100341.81;4974655;28;20239;-82
2023/12/30 08:33:23;;;;;;;9.37;2.50;;;;;;;6.33;93.42;100344.53;4974877;28;20708;-82
2023/12/30 08:35:49;;;;;;;4.47;1.73;;;;;;;6.32;93.71;100353.38;4970943;28;20209;-82
2023/12/30 08:38:16;;;;;;;6.07;2.30;;;;;;;6.35;93.53;100339.16;4970252;28;20706;-82
2023/12/30 08:40:44;;;;;;;9.07;2.87;;;;;;;6.32;93.02;100340.16;4978167;28;20208;-81
2023/12/30 08:43:11;;;;;;;4.87;1.80;;;;;;;6.35;92.97;100344.44;4968337;28;20211;-82
2023/12/30 08:45:38;;;;;;;6.93;1.73;;;;;;;6.35;92.63;100347.09;4976864;28;20756;-82
2023/12/30 08:48:06;;;;;;;8.47;2.73;;;;;;;6.39;92.41;100353.94;4972331;28;20208;-81
2023/12/30 08:50:33;;;;;;;8.60;2.93;;;;;;;6.43;92.47;100355.50;4975639;28;20200;-81
2023/12/30 08:52:59;;;;;;;5.90;2.27;;;;;;;6.45;92.57;100351.81;4971108;28;20593;-82
2023/12/30 08:55:26;;;;;;;4.80;2.30;;;;;;;6.45;92.61;100361.56;4974648;28;20225;-81
2023/12/30 08:57:53;;;;;;;9.80;3.03;;;;;;;6.48;92.55;100361.41;4971997;28;20208;-82
2023/12/30 09:00:20;;;;;;;7.07;2.63;;;;;;;6.50;92.36;100367.47;4978615;28;20216;-81
2023/12/30 09:02:48;;;;;;;5.50;3.03;;;;;;;6.50;92.28;100372.75;4978804;28;20204;-82
2023/12/30 09:05:18;;;;;;;7.10;2.67;;;;;;;6.52;92.13;100379.69;4975272;28;20781;-82
2023/12/30 09:07:44;;;;;;;5.97;2.50;;;;;;;6.52;91.89;100379.69;4975560;28;20258;-82
2023/12/30 09:10:17;;;;;;;6.00;1.90;;;;;;;6.55;91.52;100391.91;4977471;28;20208;-81
2023/12/30 09:12:44;;;;;;;4.27;1.80;;;;;;;6.54;90.91;100396.34;4973510;28;20216;-81
2023/12/30 09:15:12;;;;;;;4.77;1.80;;;;;;;6.58;91.20;100399.69;4968327;28;20229;-82
2023/12/30 09:17:39;;;;;;;8.53;2.33;;;;;;;6.60;90.91;100411.06;4971147;28;20592;-82
2023/12/30 09:20:06;;;;;;;4.43;1.57;;;;;;;6.59;90.32;100410.22;4966444;28;20201;-81
2023/12/30 09:22:33;;;;;;;5.67;2.30;;;;;;;6.63;89.93;100419.69;4975965;28;20204;-82
2023/12/30 09:25:00;;;;;;;5.80;2.30;;;;;;;6.66;88.99;100421.31;4964943;28;20227;-82
2023/12/30 09:27:26;;;;;;;5.33;2.43;;;;;;;6.71;88.13;100421.09;4973655;28;20204;-82
2023/12/30 09:29:53;;;;;;;6.63;2.70;;;;;;;6.71;88.68;100427.25;4973696;28;20207;-83
2023/12/30 09:32:20;;;;;;;4.77;2.40;;;;;;;6.75;88.89;100433.25;4971179;28;20224;-83
2023/12/30 09:34:47;;;;;;;9.83;2.27;;;;;;;6.78;88.74;100431.28;4976279;28;20229;-82
2023/12/30 09:37:14;;;;;;;3.30;2.23;;;;;;;6.80;88.17;100437.38;4970732;28;20216;-82
2023/12/30 09:39:42;;;;;;;6.53;2.13;;;;;;;6.81;88.66;100439.06;4968223;28;20247;-82
2023/12/30 09:42:08;;;;;;;4.77;2.43;;;;;;;6.86;88.42;100439.69;4968036;28;20237;-83
2023/12/30 09:44:35;;;;;;;7.47;2.33;;;;;;;6.90;88.43;100443.03;4970565;28;20803;-83
2023/12/30 09:47:07;;;;;;;7.10;2.57;;;;;;;6.93;88.71;100450.81;4971420;28;20283;-82
2023/12/30 09:49:35;;;;;;;6.97;2.37;;;;;;;7.00;88.32;100451.34;4975314;28;20210;-82
2023/12/30 09:52:04;;;;;;;3.33;2.00;;;;;;;7.04;87.98;100466.16;4976339;28;20319;-81
2023/12/30 09:54:30;;;;;;;4.57;2.20;;;;;;;7.10;87.92;100455.25;4966942;28;20228;-82
2023/12/30 09:56:57;;;;;;;7.87;2.70;;;;;;;7.13;87.90;100450.66;4972373;28;20215;-82
2023/12/30 09:59:26;;;;;;;7.53;1.90;;;;;;;7.21;87.60;100464.34;4971594;28;20282;-82
2023/12/30 10:01:54;;;;;;;6.67;2.10;;;;;;;7.27;86.59;100442.84;4967110;28;20613;-83
2023/12/30 10:04:20;;;;;;;8.57;2.50;;;;;;;7.37;85.88;100448.47;4971685;28;20232;-83
2023/12/30 10:06:50;;;;;;;4.30;2.57;;;;;;;7.38;86.10;100455.50;4973573;28;20208;-84
2023/12/30 10:09:18;;;;;;;4.87;2.57;;;;;;;7.46;85.31;100458.59;4978637;28;20291;-82
2023/12/30 10:11:45;;;;;;;7.97;3.03;;;;;;;7.50;85.07;100462.81;4978110;28;20319;-83
2023/12/30 10:14:12;;;;;;;3.40;2.30;;;;;;;7.56;83.29;100462.47;4979443;28;20235;-83
2023/12/30 10:16:38;;;;;;;6.63;2.37;;;;;;;7.53;83.58;100459.97;4974545;28;20208;-82
2023/12/30 10:19:09;;;;;;;4.93;2.00;;;;;;;7.59;83.10;100442.88;4969654;28;20219;-82
2023/12/30 10:21:37;;;;;;;5.53;2.33;;;;;;;7.62;82.70;100461.28;4972523;28;20196;-82
2023/12/30 10:24:05;;;;;;;6.87;3.53;;;;;;;7.60;82.21;100461.38;4963198;28;20224;-82
2023/12/30 10:26:32;;;;;;;4.60;2.40;;;;;;;7.62;82.14;100469.22;4973288;28;20915;-81
2023/12/30 10:28:59;;;;;;;4.60;2.03;;;;;;;7.63;80.77;100465.66;4974587;28;20204;-82
2023/12/30 10:31:25;;;;;;;4.40;1.93;;;;;;;7.64;81.54;100467.34;4975891;28;20238;-82
2023/12/30 10:33:52;;;;;;;7.97;3.07;;;;;;;7.59;81.43;100458.78;4967353;28;20728;-82
2023/12/30 10:36:19;;;;;;;4.87;2.20;;;;;;;7.65;81.08;100459.31;4962949;28;20207;-82
2023/12/30 10:38:46;;;;;;;6.90;2.10;;;;;;;7.69;81.26;100456.50;4973928;28;20231;-82
2023/12/30 10:41:14;;;;;;;5.63;2.23;;;;;;;7.70;80.76;100452.94;4974519;28;20207;-82
2023/12/30 10:43:40;;;;;;;6.23;2.60;;;;;;;7.69;81.73;100461.81;4974860;28;20224;-83
2023/12/30 10:46:10;;;;;;;4.40;2.30;;;;;;;7.69;81.23;100464.47;4975223;28;20196;-82
2023/12/30 10:48:51;;;;;;;4.83;2.33;;;;;;;7.67;81.55;100464.53;4978347;28;20553;-82
2023/12/30 10:51:25;;;;;;;7.90;3.00;;;;;;;7.64;81.14;100465.56;4978962;28;20208;-80
2023/12/30 10:54:04;;;;;;;6.40;1.97;;;;;;;7.64;80.82;100457.63;4978388;28;20739;-80
2023/12/30 10:56:39;;;;;;;8.47;2.63;;;;;;;7.65;81.38;100453.16;4977679;28;20223;-80
2023/12/30 10:59:08;;;;;;;6.23;2.40;;;;;;;7.67;80.92;100464.53;4977530;28;20681;-81
2023/12/30 11:01:36;;;;;;;4.97;2.57;;;;;;;7.70;81.08;100468.84;4977553;28;20212;-81
2023/12/30 11:04:11;;;;;;;5.80;2.53;;;;;;;7.73;81.24;100465.97;4978150;28;20234;-81
2023/12/30 11:06:44;;;;;;;5.57;2.43;;;;;;;7.75;81.56;100461.47;4980581;28;20239;-81
2023/12/30 11:09:14;;;;;;;4.77;2.43;;;;;;;7.79;82.17;100466.53;4982192;28;20657;-81
2023/12/30 11:11:49;;;;;;;6.03;2.33;;;;;;;7.84;82.12;100466.28;4983243;28;20308;-81
2023/12/30 11:14:17;;;;;;;6.87;2.30;;;;;;;7.89;81.61;100457.09;4981307;28;20228;-80
2023/12/30 11:16:44;;;;;;;7.53;2.40;;;;;;;7.88;82.50;100457.22;4981332;28;20212;-80
2023/12/30 11:19:11;;;;;;;12.57;3.43;;;;;;;7.90;81.67;100456.16;4980729;28;20232;-81
2023/12/30 11:21:40;;;;;;;6.87;3.23;;;;;;;7.88;81.84;100446.63;4981124;28;20214;-81
2023/12/30 11:24:08;;;;;;;6.20;2.77;;;;;;;7.89;82.39;100448.28;4982023;28;20257;-82
2023/12/30 11:26:36;;;;;;;5.27;2.83;;;;;;;7.92;81.93;100451.63;4982325;28;20605;-81
2023/12/30 11:29:05;;;;;;;6.30;3.27;;;;;;;7.91;81.75;100460.53;4982008;28;20205;-82
2023/12/30 11:31:33;;;;;;;6.17;3.40;;;;;;;7.90;82.72;100450.88;4981147;28;20204;-82
2023/12/30 11:34:00;;;;;;;7.67;3.13;;;;;;;7.89;82.39;100440.34;4981758;28;20661;-82